createdAt,value
2022-11-04T00:01:52.751Z,10.02
2022-11-04T00:04:22.963Z,10.02
2022-11-04T00:06:49.442Z,10.12
2022-11-04T00:09:27.656Z,10.12
2022-11-04T00:12:12.972Z,10.07
2022-11-04T00:14:39.406Z,10.08
2022-11-04T00:17:24.490Z,10.16
2022-11-04T00:20:11.011Z,9.98
2022-11-04T00:22:58.007Z,9.74
2022-11-04T00:25:43.240Z,9.89
2022-11-04T00:28:36.158Z,9.80
2022-11-04T00:31:23.364Z,9.63
2022-11-04T00:33:51.270Z,9.54
2022-11-04T00:36:18.093Z,9.60
2022-11-04T00:38:44.621Z,9.55
2022-11-04T00:41:26.846Z,9.61
2022-11-04T00:43:57.779Z,9.59
2022-11-04T00:46:24.532Z,9.68
2022-11-04T00:48:50.890Z,9.68
2022-11-04T00:51:17.303Z,9.60
2022-11-04T00:53:43.616Z,9.70
2022-11-04T00:56:10.420Z,9.64
2022-11-04T00:58:36.960Z,9.62
2022-11-04T01:01:18.598Z,9.70
2022-11-04T01:03:47.235Z,9.66
2022-11-04T01:06:13.697Z,9.69
2022-11-04T01:08:40.862Z,9.68
2022-11-04T01:11:08.867Z,9.73
2022-11-04T01:13:35.732Z,9.74
2022-11-04T01:16:04.842Z,9.67
2022-11-04T01:18:31.453Z,9.44
2022-11-04T01:21:05.690Z,9.51
2022-11-04T01:23:34.410Z,9.46
2022-11-04T01:26:00.866Z,9.54
2022-11-04T01:28:27.207Z,9.54
2022-11-04T01:30:53.676Z,9.57
2022-11-04T01:33:19.995Z,9.61
2022-11-04T01:35:46.337Z,9.66
2022-11-04T01:38:12.701Z,9.77
2022-11-04T01:40:41.040Z,9.59
2022-11-04T01:43:15.226Z,9.76
2022-11-04T01:45:45.447Z,9.68
2022-11-04T01:48:22.155Z,9.58
2022-11-04T01:50:51.276Z,9.63
2022-11-04T01:53:39.653Z,9.77
2022-11-04T01:56:12.052Z,9.85
2022-11-04T01:58:46.261Z,9.80
2022-11-04T02:01:13.329Z,9.70
2022-11-04T02:04:28.115Z,9.90
2022-11-04T02:06:57.211Z,9.84
2022-11-04T02:09:25.132Z,9.75
2022-11-04T02:12:09.911Z,9.78
2022-11-04T02:14:36.750Z,9.92
2022-11-04T02:17:29.626Z,9.98
2022-11-04T02:20:11.045Z,10.03
2022-11-04T02:22:58.028Z,10.04
2022-11-04T02:26:06.245Z,10.11
2022-11-04T02:28:46.008Z,10.14
2022-11-04T02:31:31.118Z,10.13
2022-11-04T02:34:14.282Z,10.24
2022-11-04T02:36:52.662Z,10.25
2022-11-04T02:39:38.457Z,10.31
2022-11-04T02:42:17.471Z,10.31
2022-11-04T02:44:57.903Z,10.31
2022-11-04T02:47:28.453Z,10.27
2022-11-04T02:50:06.093Z,10.26
2022-11-04T02:52:51.336Z,10.38
2022-11-04T02:55:23.090Z,10.32
2022-11-04T02:57:53.303Z,10.32
2022-11-04T03:00:21.338Z,10.33
2022-11-04T03:02:59.066Z,10.32
2022-11-04T03:05:30.574Z,10.28
2022-11-04T03:08:01.012Z,10.23
2022-11-04T03:10:37.013Z,10.29
2022-11-04T03:13:44.815Z,10.29
2022-11-04T03:16:16.438Z,10.29
2022-11-04T03:19:02.083Z,10.22
2022-11-04T03:21:33.239Z,10.29
2022-11-04T03:24:01.848Z,10.36
2022-11-04T03:26:37.130Z,10.28
2022-11-04T03:29:28.710Z,10.39
2022-11-04T03:32:30.599Z,10.30
2022-11-04T03:34:57.150Z,10.24
2022-11-04T03:37:23.527Z,10.21
2022-11-04T03:39:49.983Z,10.31
2022-11-04T03:42:21.629Z,10.32
2022-11-04T03:44:53.742Z,10.37
2022-11-04T03:47:23.476Z,10.39
2022-11-04T03:49:52.333Z,10.32
2022-11-04T03:52:19.848Z,10.37
2022-11-04T03:54:47.302Z,10.37
2022-11-04T03:57:26.827Z,10.38
2022-11-04T04:00:13.705Z,10.41
2022-11-04T04:02:48.765Z,10.39
2022-11-04T04:05:22.438Z,10.40
2022-11-04T04:07:57.569Z,10.44
2022-11-04T04:10:39.956Z,10.49
2022-11-04T04:13:23.534Z,10.49
2022-11-04T04:15:55.916Z,10.54
2022-11-04T04:19:15.197Z,10.53
2022-11-04T04:21:46.831Z,10.58
2022-11-04T04:24:35.762Z,10.54
2022-11-04T04:27:21.981Z,10.56
2022-11-04T04:29:51.236Z,10.56
2022-11-04T04:32:20.302Z,10.59
2022-11-04T04:34:46.680Z,10.54
2022-11-04T04:37:23.029Z,10.50
2022-11-04T04:40:23.893Z,10.48
2022-11-04T04:43:18.251Z,10.48
2022-11-04T04:45:51.597Z,10.47
2022-11-04T04:48:18.278Z,10.49
2022-11-04T04:50:48.706Z,10.41
2022-11-04T04:53:15.151Z,10.40
2022-11-04T04:55:41.969Z,10.42
2022-11-04T04:58:08.979Z,10.41
2022-11-04T05:00:35.436Z,10.36
2022-11-04T05:03:01.895Z,10.36
2022-11-04T05:05:28.261Z,10.43
2022-11-04T05:07:54.598Z,10.35
2022-11-04T05:10:22.375Z,10.35
2022-11-04T05:13:07.174Z,10.33
2022-11-04T05:15:34.357Z,10.28
2022-11-04T05:18:02.414Z,10.30
2022-11-04T05:20:30.316Z,10.26
2022-11-04T05:22:56.687Z,10.29
2022-11-04T05:25:23.055Z,10.29
2022-11-04T05:27:49.380Z,10.33
2022-11-04T05:30:15.839Z,10.28
2022-11-04T05:32:42.195Z,10.30
2022-11-04T05:35:08.798Z,10.25
2022-11-04T05:37:35.158Z,10.32
2022-11-04T05:40:01.555Z,10.22
2022-11-04T05:42:29.411Z,10.29
2022-11-04T05:44:55.764Z,10.15
2022-11-04T05:47:22.086Z,10.20
2022-11-04T05:49:48.446Z,10.29
2022-11-04T05:52:14.768Z,10.20
2022-11-04T05:54:41.171Z,10.20
2022-11-04T05:57:08.381Z,10.19
2022-11-04T05:59:34.738Z,10.18
2022-11-04T06:02:01.177Z,10.22
2022-11-04T06:04:27.630Z,10.23
2022-11-04T06:06:53.949Z,10.17
2022-11-04T06:09:20.459Z,10.16
2022-11-04T06:11:46.903Z,10.15
2022-11-04T06:14:18.365Z,10.13
2022-11-04T06:16:45.014Z,10.09
2022-11-04T06:19:15.909Z,10.05
2022-11-04T06:21:42.585Z,10.04
2022-11-04T06:24:08.936Z,10.03
2022-11-04T06:26:35.314Z,9.96
2022-11-04T06:29:01.679Z,9.93
2022-11-04T06:31:27.990Z,9.97
2022-11-04T06:33:54.320Z,9.89
2022-11-04T06:36:20.753Z,9.90
2022-11-04T06:38:47.124Z,9.83
2022-11-04T06:41:16.543Z,9.85
2022-11-04T06:43:43.099Z,9.73
2022-11-04T06:46:24.593Z,9.75
2022-11-04T06:48:50.912Z,9.77
2022-11-04T06:51:17.275Z,9.74
2022-11-04T06:53:43.608Z,9.74
2022-11-04T06:56:10.150Z,9.69
2022-11-04T06:58:36.464Z,9.67
2022-11-04T07:01:07.369Z,9.63
2022-11-04T07:03:37.541Z,9.75
2022-11-04T07:06:11.087Z,9.71
2022-11-04T07:08:37.451Z,9.63
2022-11-04T07:11:04.110Z,9.57
2022-11-04T07:13:30.428Z,9.62
2022-11-04T07:15:57.293Z,9.63
2022-11-04T07:18:23.976Z,9.64
2022-11-04T07:20:50.392Z,9.72
2022-11-04T07:23:16.704Z,9.67
2022-11-04T07:25:43.355Z,9.71
2022-11-04T07:28:10.076Z,9.65
2022-11-04T07:30:36.583Z,9.55
2022-11-04T07:33:02.943Z,9.62
2022-11-04T07:35:29.292Z,9.56
2022-11-04T07:37:55.646Z,9.58
2022-11-04T07:40:22.015Z,9.61
2022-11-04T07:42:48.333Z,9.62
2022-11-04T07:45:14.793Z,9.55
2022-11-04T07:47:41.142Z,9.56
2022-11-04T07:50:11.059Z,9.60
2022-11-04T07:52:38.224Z,9.56
2022-11-04T07:55:05.202Z,9.75
2022-11-04T07:57:31.523Z,9.73
2022-11-04T07:59:57.879Z,9.67
2022-11-04T08:02:28.663Z,9.75
2022-11-04T08:04:57.534Z,9.77
2022-11-04T08:07:24.295Z,9.73
2022-11-04T08:09:50.666Z,9.76
2022-11-04T08:12:17.265Z,9.70
2022-11-04T08:14:43.658Z,9.79
2022-11-04T08:17:10.107Z,9.80
2022-11-04T08:19:36.466Z,9.84
2022-11-04T08:22:02.804Z,9.85
2022-11-04T08:24:29.233Z,9.91
2022-11-04T08:26:55.671Z,10.00
2022-11-04T08:29:22.587Z,9.92
2022-11-04T08:31:48.965Z,9.79
2022-11-04T08:34:17.397Z,9.95
2022-11-04T08:36:45.043Z,10.02
2022-11-04T08:39:12.895Z,10.06
2022-11-04T08:41:43.000Z,10.05
2022-11-04T08:44:10.942Z,9.99
2022-11-04T08:46:38.780Z,10.01
2022-11-04T08:49:09.639Z,10.07
2022-11-04T08:51:39.414Z,10.05
2022-11-04T08:54:06.127Z,10.04
2022-11-04T08:56:35.577Z,9.95
2022-11-04T08:59:02.730Z,9.99
2022-11-04T09:01:35.427Z,10.10
2022-11-04T09:04:02.670Z,10.06
2022-11-04T09:06:32.911Z,10.05
2022-11-04T09:09:03.840Z,10.14
2022-11-04T09:11:36.935Z,10.08
2022-11-04T09:14:04.133Z,10.08
2022-11-04T09:16:31.487Z,10.02
2022-11-04T09:18:58.554Z,10.10
2022-11-04T09:21:26.519Z,10.11
2022-11-04T09:23:53.700Z,10.18
2022-11-04T09:26:21.124Z,10.08
2022-11-04T09:28:47.564Z,10.08
2022-11-04T09:31:16.558Z,10.15
2022-11-04T09:33:43.489Z,10.08
2022-11-04T09:36:10.860Z,10.06
2022-11-04T09:38:39.023Z,10.12
2022-11-04T09:41:39.231Z,10.02
2022-11-04T09:44:21.715Z,10.10
2022-11-04T09:46:50.045Z,10.08
2022-11-04T09:49:16.873Z,10.13
2022-11-04T09:51:55.644Z,10.12
2022-11-04T09:54:29.823Z,10.14
2022-11-04T09:56:59.318Z,10.31
2022-11-04T09:59:33.429Z,10.42
2022-11-04T10:02:21.652Z,10.53
2022-11-04T10:05:19.448Z,10.58
2022-11-04T10:08:18.495Z,10.61
2022-11-04T10:11:06.636Z,10.62
2022-11-04T10:14:00.252Z,10.67
2022-11-04T10:16:44.881Z,10.64
2022-11-04T10:19:26.500Z,10.64
2022-11-04T10:22:04.588Z,10.80
2022-11-04T10:24:41.734Z,10.75
2022-11-04T10:27:16.858Z,10.81
2022-11-04T10:29:44.979Z,10.87
2022-11-04T10:32:47.226Z,10.87
2022-11-04T10:35:13.524Z,10.97
2022-11-04T10:37:40.003Z,10.94
2022-11-04T10:40:20.675Z,10.84
2022-11-04T10:42:47.385Z,10.90
2022-11-04T10:45:14.417Z,10.84
2022-11-04T10:48:08.485Z,10.82
2022-11-04T10:50:39.363Z,10.94
2022-11-04T10:53:12.595Z,10.98
2022-11-04T10:55:47.634Z,11.03
2022-11-04T10:58:22.996Z,11.06
2022-11-04T11:00:50.206Z,11.08
2022-11-04T11:03:31.748Z,11.16
2022-11-04T11:06:11.913Z,11.53
2022-11-04T11:08:39.041Z,11.53
2022-11-04T11:11:06.769Z,11.54
2022-11-04T11:13:39.656Z,11.60
2022-11-04T11:16:07.946Z,11.50
2022-11-04T11:18:34.667Z,11.61
2022-11-04T11:21:07.615Z,11.68
2022-11-04T11:23:39.453Z,11.72
2022-11-04T11:26:08.994Z,11.64
2022-11-04T11:28:38.288Z,11.76
2022-11-04T11:31:13.042Z,12.24
2022-11-04T11:34:03.765Z,12.51
2022-11-04T11:36:32.799Z,12.11
2022-11-04T11:39:12.061Z,11.98
2022-11-04T11:41:53.694Z,12.01
2022-11-04T11:44:31.994Z,12.02
2022-11-04T11:47:19.569Z,11.99
2022-11-04T11:49:46.115Z,11.68
2022-11-04T11:52:38.121Z,11.74
2022-11-04T11:55:15.389Z,11.75
2022-11-04T12:01:05.240Z,11.92
2022-11-04T12:09:52.998Z,11.98
2022-11-04T12:12:41.779Z,11.97
2022-11-04T12:15:23.490Z,11.91
2022-11-04T12:18:16.828Z,11.95
2022-11-04T12:21:05.653Z,12.08
2022-11-04T12:23:56.145Z,12.04
2022-11-04T12:27:00.272Z,11.90
2022-11-04T12:29:48.424Z,11.95
2022-11-04T12:32:27.003Z,12.15
2022-11-04T12:35:15.297Z,12.07
2022-11-04T12:38:17.185Z,12.12
2022-11-04T12:41:34.296Z,11.99
2022-11-04T12:44:10.537Z,12.09
2022-11-04T12:46:59.401Z,12.13
2022-11-04T12:49:51.978Z,12.05
2022-11-04T12:52:37.499Z,12.05
2022-11-04T12:55:43.875Z,11.98
2022-11-04T12:58:35.149Z,12.00
2022-11-04T13:01:09.724Z,12.11
2022-11-04T13:03:53.404Z,12.02
2022-11-04T13:06:28.009Z,11.99
2022-11-04T13:08:58.885Z,11.94
2022-11-04T13:11:33.265Z,12.04
2022-11-04T13:14:09.502Z,12.22
2022-11-04T13:16:40.303Z,12.19
2022-11-04T13:19:23.691Z,12.08
2022-11-04T13:21:50.872Z,11.92
2022-11-04T13:24:37.909Z,11.81
2022-11-04T13:27:19.140Z,12.03
2022-11-04T13:29:46.781Z,12.03
2022-11-04T13:32:35.114Z,11.95
2022-11-04T13:35:12.766Z,12.12
2022-11-04T13:37:47.789Z,12.22
2022-11-04T13:40:22.811Z,12.07
2022-11-04T13:43:36.990Z,12.01
2022-11-04T13:46:05.665Z,12.02
2022-11-04T13:48:34.511Z,11.99
2022-11-04T13:51:04.970Z,12.02
2022-11-04T13:53:50.958Z,12.00
2022-11-04T13:56:34.528Z,12.00
2022-11-04T13:59:29.568Z,11.90
2022-11-04T14:02:11.646Z,11.99
2022-11-04T14:04:40.008Z,11.90
2022-11-04T14:07:10.629Z,11.99
2022-11-04T14:09:42.733Z,11.90
2022-11-04T14:12:09.168Z,11.98
2022-11-04T14:14:36.875Z,12.05
2022-11-04T14:17:07.105Z,11.92
2022-11-04T14:19:56.799Z,11.83
2022-11-04T14:22:30.758Z,11.86
2022-11-04T14:25:51.996Z,11.69
2022-11-04T14:28:29.724Z,11.79
2022-11-04T14:31:02.628Z,11.56
2022-11-04T14:33:51.481Z,11.67
2022-11-04T14:36:20.833Z,11.63
2022-11-04T14:39:10.447Z,11.82
2022-11-04T14:41:50.011Z,11.58
2022-11-04T14:44:23.295Z,11.67
2022-11-04T14:46:54.227Z,11.76
2022-11-04T14:49:35.873Z,11.68
2022-11-04T14:52:02.294Z,11.74
2022-11-04T14:54:32.396Z,11.72
2022-11-04T14:57:14.930Z,11.66
2022-11-04T14:59:41.865Z,11.60
2022-11-04T15:02:35.409Z,11.63
2022-11-04T15:05:02.590Z,11.43
2022-11-04T15:07:39.859Z,11.66
2022-11-04T15:10:25.107Z,11.73
2022-11-04T15:12:55.086Z,11.74
2022-11-04T15:15:44.689Z,11.58
2022-11-04T15:18:16.666Z,11.25
2022-11-04T15:20:52.946Z,11.36
2022-11-04T15:23:35.026Z,11.31
2022-11-04T15:26:03.359Z,11.46
2022-11-04T15:28:34.486Z,11.47
2022-11-04T15:31:02.625Z,11.36
2022-11-04T15:33:30.291Z,11.35
2022-11-04T15:35:57.967Z,11.20
2022-11-04T15:38:27.379Z,11.21
2022-11-04T15:40:54.803Z,11.22
2022-11-04T15:43:21.188Z,11.08
2022-11-04T15:45:47.649Z,11.13
2022-11-04T15:48:28.010Z,10.88
2022-11-04T15:51:19.301Z,11.00
2022-11-04T15:53:52.488Z,10.92
2022-11-04T15:56:22.659Z,10.83
2022-11-04T15:58:49.603Z,10.67
2022-11-04T16:01:18.032Z,10.72
2022-11-04T16:03:56.555Z,10.83
2022-11-04T16:06:34.680Z,10.79
2022-11-04T16:09:05.359Z,10.69
2022-11-04T16:11:31.847Z,10.76
2022-11-04T16:14:20.159Z,10.61
2022-11-04T16:16:49.732Z,10.49
2022-11-04T16:19:23.208Z,10.66
2022-11-04T16:22:00.353Z,10.60
2022-11-04T16:24:30.807Z,10.58
2022-11-04T16:26:57.923Z,10.49
2022-11-04T16:29:31.250Z,10.38
2022-11-04T16:32:20.597Z,10.09
2022-11-04T16:34:49.905Z,10.47
2022-11-04T16:37:16.280Z,9.77
2022-11-04T16:39:46.242Z,9.65
2022-11-04T16:42:14.130Z,9.53
2022-11-04T16:44:41.492Z,9.25
2022-11-04T16:47:10.471Z,9.46
2022-11-04T16:49:37.186Z,9.57
2022-11-04T16:52:03.651Z,9.41
2022-11-04T16:54:30.039Z,9.84
2022-11-04T16:56:56.787Z,9.78
2022-11-04T16:59:23.542Z,9.52
2022-11-04T17:01:50.199Z,9.17
2022-11-04T17:04:16.638Z,9.54
2022-11-04T17:06:43.463Z,9.41
2022-11-04T17:09:19.131Z,9.44
2022-11-04T17:11:46.015Z,9.44
2022-11-04T17:14:12.382Z,9.18
2022-11-04T17:16:38.908Z,9.25
2022-11-04T17:19:05.501Z,9.40
2022-11-04T17:21:32.074Z,8.99
2022-11-04T17:23:58.440Z,9.39
2022-11-04T17:26:24.806Z,9.39
2022-11-04T17:28:51.132Z,9.05
2022-11-04T17:31:19.861Z,9.49
2022-11-04T17:33:46.242Z,9.57
2022-11-04T17:36:18.649Z,9.70
2022-11-04T17:38:46.337Z,9.44
2022-11-04T17:41:31.959Z,9.47
2022-11-04T17:44:01.107Z,9.58
2022-11-04T17:46:35.037Z,9.69
2022-11-04T17:49:08.021Z,9.69
2022-11-04T17:51:35.775Z,9.88
2022-11-04T17:54:02.115Z,9.81
2022-11-04T17:56:28.629Z,9.82
2022-11-04T17:58:54.991Z,9.31
2022-11-04T18:01:23.222Z,9.42
2022-11-04T18:03:52.327Z,9.40
2022-11-04T18:06:20.325Z,9.26
2022-11-04T18:08:47.617Z,9.09
2022-11-04T18:11:35.221Z,8.85
2022-11-04T18:14:01.736Z,8.76
2022-11-04T18:16:28.298Z,8.91
2022-11-04T18:18:54.728Z,8.65
2022-11-04T18:21:21.108Z,8.59
2022-11-04T18:23:47.495Z,8.51
2022-11-04T18:26:13.876Z,8.41
2022-11-04T18:28:40.414Z,8.33
2022-11-04T18:31:11.143Z,8.40
2022-11-04T18:33:38.115Z,8.30
2022-11-04T18:36:05.254Z,8.35
2022-11-04T18:38:32.262Z,8.49
2022-11-04T18:40:59.148Z,8.22
2022-11-04T18:43:25.529Z,8.18
2022-11-04T18:45:53.599Z,8.09
2022-11-04T18:48:21.614Z,7.97
2022-11-04T18:50:48.639Z,8.03
2022-11-04T18:53:15.582Z,7.86
2022-11-04T18:55:42.172Z,7.62
2022-11-04T18:58:08.852Z,7.71
2022-11-04T19:00:37.466Z,7.67
2022-11-04T19:03:03.917Z,7.55
2022-11-04T19:05:30.497Z,7.75
2022-11-04T19:07:56.821Z,7.41
2022-11-04T19:10:23.202Z,7.69
2022-11-04T19:13:08.735Z,7.48
2022-11-04T19:15:35.731Z,7.45
2022-11-04T19:18:02.055Z,7.70
2022-11-04T19:20:28.628Z,7.76
2022-11-04T19:22:54.947Z,7.57
2022-11-04T19:25:21.350Z,7.54
2022-11-04T19:28:00.091Z,7.57
2022-11-04T19:30:34.736Z,7.42
2022-11-04T19:33:01.232Z,7.28
2022-11-04T19:35:28.997Z,7.80
2022-11-04T19:37:55.654Z,7.33
2022-11-04T19:40:22.240Z,7.56
2022-11-04T19:43:07.239Z,7.48
2022-11-04T19:45:33.784Z,7.42
2022-11-04T19:48:00.120Z,7.71
2022-11-04T19:50:26.556Z,7.96
2022-11-04T19:52:52.887Z,7.93
2022-11-04T19:55:19.849Z,7.56
2022-11-04T19:57:46.207Z,7.96
2022-11-04T20:00:12.836Z,7.73
2022-11-04T20:02:39.354Z,7.54
2022-11-04T20:05:07.042Z,7.71
2022-11-04T20:07:33.421Z,7.34
2022-11-04T20:09:59.797Z,7.24
2022-11-04T20:12:44.818Z,7.24
2022-11-04T20:15:11.238Z,7.10
2022-11-04T20:17:37.545Z,7.29
2022-11-04T20:20:04.441Z,7.36
2022-11-04T20:22:30.783Z,7.25
2022-11-04T20:24:57.203Z,6.95
2022-11-04T20:27:23.567Z,7.18
2022-11-04T20:29:50.386Z,6.73
2022-11-04T20:32:16.789Z,7.08
2022-11-04T20:34:43.256Z,6.99
2022-11-04T20:37:11.588Z,6.81
2022-11-04T20:39:38.422Z,6.72
2022-11-04T20:42:04.915Z,6.48
2022-11-04T20:44:31.418Z,6.46
2022-11-04T20:46:57.993Z,7.13
2022-11-04T20:49:24.570Z,6.65
2022-11-04T20:51:55.400Z,6.88
2022-11-04T20:54:22.219Z,7.01
2022-11-04T20:56:48.556Z,6.85
2022-11-04T20:59:22.328Z,6.83
2022-11-04T21:01:50.198Z,6.63
2022-11-04T21:04:19.384Z,6.49
2022-11-04T21:06:47.399Z,6.48
2022-11-04T21:09:15.501Z,6.21
2022-11-04T21:11:42.203Z,6.40
2022-11-04T21:14:11.928Z,6.91
2022-11-04T21:16:38.530Z,6.59
2022-11-04T21:19:05.787Z,6.65
2022-11-04T21:21:33.127Z,6.50
2022-11-04T21:24:01.749Z,6.50
2022-11-04T21:26:30.359Z,6.44
2022-11-04T21:28:58.392Z,6.99
2022-11-04T21:31:25.408Z,7.13
2022-11-04T21:33:52.640Z,6.86
2022-11-04T21:36:19.446Z,7.32
2022-11-04T21:38:46.322Z,7.24
2022-11-04T21:41:15.950Z,7.31
2022-11-04T21:43:42.319Z,6.91
2022-11-04T21:46:14.001Z,6.90
2022-11-04T21:48:41.500Z,6.61
2022-11-04T21:51:14.396Z,6.80
2022-11-04T21:53:41.011Z,6.79
2022-11-04T21:56:10.292Z,7.01
2022-11-04T21:58:37.429Z,7.04
2022-11-04T22:01:06.792Z,6.63
2022-11-04T22:03:33.746Z,6.55
2022-11-04T22:06:02.654Z,6.61
2022-11-04T22:08:29.974Z,7.07
2022-11-04T22:10:56.715Z,6.96
2022-11-04T22:13:23.274Z,6.96
2022-11-04T22:15:58.911Z,7.08
2022-11-04T22:18:30.906Z,7.28
2022-11-04T22:21:00.556Z,6.76
2022-11-04T22:23:27.075Z,6.53
2022-11-04T22:25:59.290Z,6.77
2022-11-04T22:28:25.677Z,6.64
2022-11-04T22:30:52.043Z,6.80
2022-11-04T22:33:18.358Z,6.54
2022-11-04T22:35:46.471Z,6.36
2022-11-04T22:38:13.099Z,6.75
2022-11-04T22:40:40.450Z,6.46
2022-11-04T22:43:06.862Z,6.97
2022-11-04T22:45:33.501Z,6.58
2022-11-04T22:47:59.866Z,6.37
2022-11-04T22:50:26.252Z,6.16
2022-11-04T22:52:52.581Z,5.97
2022-11-04T22:55:19.381Z,6.09
2022-11-04T22:57:45.710Z,5.89
2022-11-04T23:00:12.713Z,6.12
2022-11-04T23:02:39.292Z,6.00
2022-11-04T23:05:06.128Z,5.69
2022-11-04T23:07:32.822Z,5.67
2022-11-04T23:10:18.037Z,5.63
2022-11-04T23:13:02.886Z,5.45
2022-11-04T23:15:48.159Z,5.50
2022-11-04T23:18:33.401Z,5.41
2022-11-04T23:21:19.437Z,5.41
2022-11-04T23:24:04.389Z,5.42
2022-11-04T23:26:31.444Z,5.71
2022-11-04T23:29:16.408Z,6.12
2022-11-04T23:31:42.776Z,5.68
2022-11-04T23:34:29.607Z,5.79
2022-11-04T23:37:14.129Z,5.46
2022-11-04T23:39:48.564Z,5.56
2022-11-04T23:42:18.220Z,5.86
2022-11-04T23:45:08.742Z,5.76
2022-11-04T23:47:56.938Z,5.53
2022-11-04T23:50:45.192Z,5.47
2022-11-04T23:53:32.587Z,5.80
2022-11-04T23:56:17.399Z,5.67
2022-11-04T23:59:02.674Z,5.47
